Time;durP1;ratioP1;P1;durP2;ratioP2;P2;SDS_P1;SDS_P2;PMS_P1;PMS_P2;Temp;Humidity;BMP_temperature;BMP_pressure;BME280_temperature;BME280_humidity;BME280_pressure;Samples;Min_cycle;Max_cycle;Signal;HPM_P1;HPM_P2
2021/06/16 00:00:35;;;;;;;12.75;5.70;;;19.20;97.50;;;;;;5050955;28;20287;-41
2021/06/16 00:03:04;;;;;;;7.85;6.00;;;19.20;97.60;;;;;;5053999;28;20228;-43
2021/06/16 00:05:32;;;;;;;8.20;5.60;;;19.10;97.80;;;;;;5054711;28;20208;-42
2021/06/16 00:08:02;;;;;;;9.93;5.55;;;19.10;98.10;;;;;;5054665;28;20608;-42
2021/06/16 00:10:32;;;;;;;7.13;5.85;;;19.10;98.30;;;;;;5054790;28;20294;-42
2021/06/16 00:13:02;;;;;;;6.07;5.47;;;19.10;98.40;;;;;;5054627;28;20299;-44
2021/06/16 00:15:34;;;;;;;8.15;5.22;;;19.00;98.40;;;;;;5054666;28;20307;-42
2021/06/16 00:18:03;;;;;;;7.35;5.30;;;19.00;98.50;;;;;;5054255;28;20298;-43
2021/06/16 00:20:31;;;;;;;8.13;5.78;;;19.00;98.70;;;;;;5054213;28;20232;-42
2021/06/16 00:22:59;;;;;;;9.05;5.38;;;18.90;98.80;;;;;;5054645;28;20259;-42
2021/06/16 00:25:28;;;;;;;9.05;4.88;;;18.90;99.00;;;;;;5054268;28;20299;-42
2021/06/16 00:27:56;;;;;;;8.82;5.88;;;18.90;99.10;;;;;;5054659;28;20302;-41
2021/06/16 00:30:25;;;;;;;6.70;5.28;;;18.90;99.20;;;;;;5054396;28;20208;-43
2021/06/16 00:32:55;;;;;;;5.75;5.25;;;18.80;99.40;;;;;;5054376;28;20302;-41
2021/06/16 00:35:23;;;;;;;8.95;5.40;;;18.80;99.50;;;;;;5054383;28;20235;-41
2021/06/16 00:37:53;;;;;;;8.02;5.45;;;18.80;99.60;;;;;;5054237;28;20295;-46
2021/06/16 00:40:25;;;;;;;7.10;5.40;;;18.80;99.80;;;;;;5054313;28;20243;-41
2021/06/16 00:42:57;;;;;;;7.93;6.00;;;18.70;99.80;;;;;;5054363;28;20228;-41
2021/06/16 00:45:25;;;;;;;7.18;5.78;;;18.70;99.90;;;;;;5054240;28;20299;-42
2021/06/16 00:47:55;;;;;;;5.18;4.53;;;18.70;99.90;;;;;;5054175;28;20235;-42
2021/06/16 00:50:24;;;;;;;6.03;4.90;;;18.70;99.90;;;;;;5054252;28;20207;-42
2021/06/16 00:52:52;;;;;;;6.07;5.47;;;18.60;99.90;;;;;;5054172;28;20338;-41
2021/06/16 00:55:20;;;;;;;5.55;4.95;;;18.60;99.90;;;;;;5053836;28;20311;-43
2021/06/16 00:57:48;;;;;;;6.93;5.63;;;18.60;99.90;;;;;;5054075;28;20212;-41
2021/06/16 01:00:20;;;;;;;6.05;5.45;;;18.60;99.90;;;;;;5053827;28;20299;-40
2021/06/16 01:02:57;;;;;;;6.63;5.25;;;18.60;99.90;;;;;;5053682;28;20212;-41
2021/06/16 01:05:29;;;;;;;8.90;5.45;;;18.60;99.90;;;;;;5054236;28;20207;-41
2021/06/16 01:07:59;;;;;;;6.28;4.50;;;18.60;99.90;;;;;;5053852;28;20211;-41
2021/06/16 01:10:34;;;;;;;8.18;5.50;;;18.50;99.90;;;;;;5053756;28;20281;-41
2021/06/16 01:13:07;;;;;;;12.65;7.13;;;18.50;99.90;;;;;;5053268;28;20239;-41
2021/06/16 01:15:46;;;;;;;8.00;7.05;;;18.50;99.90;;;;;;5053347;28;20562;-41
2021/06/16 01:18:18;;;;;;;8.32;6.32;;;18.40;99.90;;;;;;5053505;28;20258;-41
2021/06/16 01:20:49;;;;;;;8.00;6.78;;;18.40;99.90;;;;;;5053559;28;20278;-40
2021/06/16 01:23:35;;;;;;;8.77;6.47;;;18.40;99.90;;;;;;5053429;28;20322;-42
2021/06/16 01:26:23;;;;;;;7.53;5.80;;;18.40;99.90;;;;;;5053421;28;20690;-41
2021/06/16 01:28:53;;;;;;;7.97;5.45;;;18.40;99.90;;;;;;5053551;28;20246;-42
2021/06/16 01:31:22;;;;;;;8.07;6.18;;;18.30;99.90;;;;;;5053493;28;20211;-42
2021/06/16 01:33:52;;;;;;;7.20;5.72;;;18.30;99.90;;;;;;5053486;28;20214;-42
2021/06/16 01:36:23;;;;;;;8.30;5.88;;;18.30;99.90;;;;;;5053264;28;20211;-41
2021/06/16 01:38:52;;;;;;;6.60;5.82;;;18.40;99.90;;;;;;5053439;28;20231;-42
2021/06/16 01:41:22;;;;;;;6.25;5.60;;;18.30;99.90;;;;;;5053256;28;20220;-41
2021/06/16 01:43:54;;;;;;;7.88;6.13;;;18.40;99.90;;;;;;5053387;28;20326;-42
2021/06/16 01:46:24;;;;;;;7.78;5.13;;;18.40;99.90;;;;;;5053211;28;20226;-42
2021/06/16 01:48:53;;;;;;;7.47;6.35;;;18.30;99.90;;;;;;5053395;28;20303;-42
2021/06/16 01:51:21;;;;;;;8.45;6.05;;;18.30;99.90;;;;;;5053145;28;20246;-42
2021/06/16 01:53:50;;;;;;;7.05;5.30;;;18.30;99.90;;;;;;5053094;28;20307;-42
2021/06/16 01:56:21;;;;;;;8.77;6.25;;;18.30;99.90;;;;;;5052781;28;20214;-42
2021/06/16 01:58:49;;;;;;;6.72;5.68;;;18.20;99.90;;;;;;5052896;28;20208;-42
2021/06/16 02:01:22;;;;;;;7.45;5.85;;;18.10;99.90;;;;;;5052682;28;20226;-41
2021/06/16 02:03:51;;;;;;;8.05;5.88;;;18.10;99.90;;;;;;5052952;28;20445;-42
2021/06/16 02:06:22;;;;;;;6.35;5.75;;;18.10;99.90;;;;;;5052677;28;20638;-41
2021/06/16 02:08:51;;;;;;;6.95;6.05;;;18.00;99.90;;;;;;5052892;28;20411;-42
2021/06/16 02:11:23;;;;;;;7.72;6.22;;;18.00;99.90;;;;;;5052693;28;20210;-42
2021/06/16 02:13:54;;;;;;;6.68;6.07;;;18.10;99.90;;;;;;5052521;28;20239;-42
2021/06/16 02:16:27;;;;;;;6.00;5.10;;;18.00;99.90;;;;;;5052797;28;20238;-42
2021/06/16 02:19:00;;;;;;;6.70;6.03;;;18.00;99.90;;;;;;5052617;28;20208;-42
2021/06/16 02:21:28;;;;;;;8.65;5.40;;;18.00;99.90;;;;;;5052420;28;20330;-41
2021/06/16 02:23:56;;;;;;;7.30;6.18;;;17.90;99.90;;;;;;5051648;28;20711;-41
2021/06/16 02:26:26;;;;;;;7.68;6.05;;;17.90;99.90;;;;;;5052346;28;20318;-41
2021/06/16 02:28:54;;;;;;;5.78;5.28;;;17.90;99.90;;;;;;5052491;28;20296;-41
2021/06/16 02:31:22;;;;;;;7.15;6.50;;;17.90;99.90;;;;;;5052266;28;20622;-41
2021/06/16 02:33:51;;;;;;;8.35;5.95;;;17.90;99.90;;;;;;5052276;28;20215;-42
2021/06/16 02:36:21;;;;;;;7.45;6.72;;;17.80;99.90;;;;;;5052205;28;20667;-41
2021/06/16 02:38:57;;;;;;;7.95;7.07;;;17.80;99.90;;;;;;5052110;28;20303;-41
2021/06/16 02:41:27;;;;;;;9.30;6.22;;;17.70;99.90;;;;;;5052274;28;20207;-41
2021/06/16 02:43:56;;;;;;;7.65;6.38;;;17.70;99.90;;;;;;5052035;28;20794;-41
2021/06/16 02:46:24;;;;;;;10.23;6.80;;;17.70;99.90;;;;;;5052200;28;20304;-42
2021/06/16 02:48:54;;;;;;;10.27;7.63;;;17.70;99.90;;;;;;5051839;28;20204;-42
2021/06/16 02:51:22;;;;;;;10.43;8.30;;;17.70;99.90;;;;;;5051882;28;20592;-41
2021/06/16 02:53:52;;;;;;;11.00;7.55;;;17.70;99.90;;;;;;5051926;28;20286;-41
2021/06/16 02:56:22;;;;;;;7.97;7.13;;;17.70;99.90;;;;;;5051981;28;20211;-41
2021/06/16 02:58:52;;;;;;;8.20;6.70;;;17.70;99.90;;;;;;5052010;28;20211;-41
2021/06/16 03:01:22;;;;;;;7.15;6.43;;;17.70;99.90;;;;;;5051943;28;20215;-40
2021/06/16 03:03:52;;;;;;;8.73;7.47;;;17.70;99.90;;;;;;5051713;28;20204;-41
2021/06/16 03:06:23;;;;;;;9.63;6.90;;;17.70;99.90;;;;;;5052185;28;20216;-41
2021/06/16 03:08:55;;;;;;;10.10;7.13;;;17.70;99.90;;;;;;5051839;28;20208;-41
2021/06/16 03:11:23;;;;;;;8.00;7.18;;;17.60;99.90;;;;;;5051767;28;20204;-40
2021/06/16 03:13:54;;;;;;;7.43;6.35;;;17.60;99.90;;;;;;5051700;28;20243;-41
2021/06/16 03:16:23;;;;;;;8.50;6.53;;;17.60;99.90;;;;;;5051918;28;20299;-41
2021/06/16 03:18:51;;;;;;;6.88;6.18;;;17.60;99.90;;;;;;5051897;28;20208;-43
2021/06/16 03:21:19;;;;;;;6.95;6.25;;;17.60;99.90;;;;;;5051531;28;20616;-41
2021/06/16 03:23:49;;;;;;;7.80;7.10;;;17.60;99.90;;;;;;5051838;28;20212;-40
2021/06/16 03:26:19;;;;;;;8.35;7.07;;;17.60;99.90;;;;;;5051584;28;20259;-41
2021/06/16 03:28:48;;;;;;;7.50;6.80;;;17.50;99.90;;;;;;5051588;28;20222;-41
2021/06/16 03:31:18;;;;;;;8.02;7.10;;;17.50;99.90;;;;;;5051845;28;20212;-41
2021/06/16 03:33:48;;;;;;;8.85;6.95;;;17.50;99.90;;;;;;5051618;28;20629;-41
2021/06/16 03:36:17;;;;;;;10.02;7.32;;;17.50;99.90;;;;;;5053852;28;20295;-41
2021/06/16 03:38:46;;;;;;;7.88;7.07;;;17.50;99.90;;;;;;5055719;28;20303;-41
2021/06/16 03:41:14;;;;;;;8.25;7.35;;;17.50;99.90;;;;;;5055477;28;20222;-41
2021/06/16 03:43:43;;;;;;;6.70;6.07;;;17.50;99.90;;;;;;5055670;28;20304;-42
2021/06/16 03:46:12;;;;;;;7.97;6.85;;;17.50;99.90;;;;;;5055539;28;20323;-41
2021/06/16 03:48:45;;;;;;;9.68;6.95;;;17.50;99.90;;;;;;5055540;28;20291;-41
2021/06/16 03:51:13;;;;;;;8.10;6.50;;;17.50;99.90;;;;;;5055292;28;20307;-41
2021/06/16 03:53:44;;;;;;;9.82;7.03;;;17.50;99.90;;;;;;5055163;28;20250;-42
2021/06/16 03:56:12;;;;;;;9.20;7.63;;;17.50;99.90;;;;;;5055471;28;20286;-44
2021/06/16 03:58:41;;;;;;;9.63;7.40;;;17.50;99.90;;;;;;5054940;28;20746;-42
2021/06/16 04:01:13;;;;;;;8.35;6.60;;;17.60;99.90;;;;;;5054900;28;20208;-43
2021/06/16 04:03:43;;;;;;;7.82;6.90;;;17.60;99.90;;;;;;5054899;28;20212;-42
2021/06/16 04:06:14;;;;;;;8.88;7.38;;;17.60;99.90;;;;;;5054384;28;20315;-45
2021/06/16 04:08:44;;;;;;;8.57;7.45;;;17.60;99.90;;;;;;5054616;28;20235;-43
2021/06/16 04:11:12;;;;;;;8.38;7.38;;;17.70;99.90;;;;;;5054636;28;20296;-45
2021/06/16 04:13:41;;;;;;;9.70;7.93;;;17.70;99.90;;;;;;5055055;28;20212;-43
2021/06/16 04:16:10;;;;;;;7.53;6.55;;;17.70;99.90;;;;;;5054404;28;20231;-41
2021/06/16 04:18:41;;;;;;;8.77;7.05;;;17.80;99.90;;;;;;5054366;28;20559;-41
2021/06/16 04:21:11;;;;;;;10.15;7.65;;;17.80;99.90;;;;;;5054132;28;20286;-41
2021/06/16 04:23:39;;;;;;;8.10;6.50;;;17.80;99.90;;;;;;5054522;28;20581;-40
2021/06/16 04:26:07;;;;;;;11.05;7.97;;;17.80;99.90;;;;;;5054344;28;20234;-41
2021/06/16 04:28:35;;;;;;;9.20;6.80;;;17.90;99.90;;;;;;5054599;28;20244;-41
2021/06/16 04:31:02;;;;;;;7.43;6.65;;;17.90;99.90;;;;;;5054246;28;20212;-43
2021/06/16 04:33:30;;;;;;;9.57;6.82;;;18.00;99.90;;;;;;5055019;28;20208;-41
2021/06/16 04:35:58;;;;;;;10.70;7.35;;;18.10;99.90;;;;;;5054490;28;20206;-41
2021/06/16 04:38:28;;;;;;;12.57;7.63;;;18.20;99.90;;;;;;5054493;28;20239;-40
2021/06/16 04:40:56;;;;;;;10.50;7.45;;;18.20;99.90;;;;;;5054514;28;20295;-41
2021/06/16 04:43:24;;;;;;;9.73;8.27;;;18.30;99.90;;;;;;5054376;28;20282;-41
2021/06/16 04:45:52;;;;;;;9.55;7.18;;;18.40;99.90;;;;;;5054231;28;20609;-42
2021/06/16 04:48:20;;;;;;;10.88;7.70;;;18.40;99.90;;;;;;5053571;28;20244;-41
2021/06/16 04:50:48;;;;;;;9.68;7.25;;;18.50;99.90;;;;;;5054355;28;20299;-40
2021/06/16 04:53:16;;;;;;;9.55;8.55;;;18.60;99.90;;;;;;5054186;28;20306;-40
2021/06/16 04:55:45;;;;;;;10.13;9.05;;;18.70;99.90;;;;;;5054110;28;20206;-40
2021/06/16 04:58:13;;;;;;;9.63;7.60;;;18.80;99.90;;;;;;5054011;28;20676;-40
2021/06/16 05:00:42;;;;;;;8.18;7.03;;;18.90;99.90;;;;;;5054032;28;20238;-40
2021/06/16 05:03:10;;;;;;;8.73;7.75;;;19.00;99.90;;;;;;5054064;28;20266;-41
2021/06/16 05:05:38;;;;;;;8.02;7.22;;;19.10;99.90;;;;;;5053766;28;20695;-42
2021/06/16 05:08:07;;;;;;;9.50;7.65;;;19.10;99.90;;;;;;5053876;28;20667;-44
2021/06/16 05:10:35;;;;;;;16.45;7.57;;;19.10;99.90;;;;;;5053681;28;20295;-43
2021/06/16 05:13:04;;;;;;;8.90;7.55;;;19.20;99.80;;;;;;5053476;28;20680;-43
2021/06/16 05:15:32;;;;;;;7.65;6.88;;;19.30;99.60;;;;;;5053652;28;20315;-41
2021/06/16 05:18:00;;;;;;;10.85;7.05;;;19.40;99.30;;;;;;5053671;28;20304;-42
2021/06/16 05:20:28;;;;;;;9.55;7.10;;;19.50;99.10;;;;;;5053624;28;20211;-42
2021/06/16 05:22:58;;;;;;;7.10;6.43;;;19.50;98.90;;;;;;5053576;28;20291;-42
2021/06/16 05:25:26;;;;;;;13.25;8.27;;;19.50;98.90;;;;;;5053325;28;20315;-43
2021/06/16 05:27:53;;;;;;;8.93;6.60;;;19.50;98.90;;;;;;5053664;28;20296;-44
2021/06/16 05:30:24;;;;;;;8.38;6.55;;;19.60;98.70;;;;;;5053591;28;20208;-43
2021/06/16 05:32:52;;;;;;;10.50;6.70;;;19.60;98.60;;;;;;5053677;28;20311;-45
2021/06/16 05:35:19;;;;;;;8.40;6.30;;;19.60;98.50;;;;;;5053448;28;20215;-44
2021/06/16 05:37:48;;;;;;;8.05;6.10;;;19.70;98.40;;;;;;5053144;28;20298;-40
2021/06/16 05:40:17;;;;;;;6.80;6.20;;;19.80;98.20;;;;;;5053375;28;20303;-40
2021/06/16 05:42:45;;;;;;;9.25;7.38;;;19.90;98.10;;;;;;5053255;28;20299;-41
2021/06/16 05:45:14;;;;;;;8.75;6.78;;;20.00;97.90;;;;;;5052967;28;20295;-41
2021/06/16 05:47:43;;;;;;;9.32;6.43;;;20.10;97.70;;;;;;5052948;28;20212;-40
2021/06/16 05:50:12;;;;;;;5.93;5.43;;;20.20;97.50;;;;;;5053038;28;20303;-42
2021/06/16 05:52:40;;;;;;;8.25;7.45;;;20.30;97.30;;;;;;5052715;28;20207;-45
2021/06/16 05:55:09;;;;;;;7.20;5.90;;;20.30;97.10;;;;;;5052547;28;20247;-41
2021/06/16 05:57:37;;;;;;;6.93;5.90;;;20.40;97.00;;;;;;5052744;28;20210;-40
2021/06/16 06:00:07;;;;;;;6.95;5.90;;;20.40;97.20;;;;;;5052454;28;20211;-40
2021/06/16 06:02:45;;;;;;;13.18;6.93;;;20.50;96.80;;;;;;5052578;28;20244;-40
2021/06/16 06:05:13;;;;;;;8.65;6.05;;;20.50;96.60;;;;;;5052299;28;20247;-41
2021/06/16 06:07:41;;;;;;;6.50;4.82;;;20.70;96.50;;;;;;5052425;28;20234;-40
2021/06/16 06:10:09;;;;;;;6.22;5.63;;;20.70;96.30;;;;;;5052043;28;20298;-40
2021/06/16 06:12:38;;;;;;;6.30;5.60;;;20.80;96.20;;;;;;5052283;28;20672;-40
2021/06/16 06:15:07;;;;;;;9.02;5.43;;;20.90;96.10;;;;;;5052240;28;20208;-40
2021/06/16 06:17:36;;;;;;;9.90;5.65;;;20.90;96.00;;;;;;5052013;28;20204;-40
2021/06/16 06:20:06;;;;;;;6.45;5.70;;;21.00;95.90;;;;;;5052128;28;20307;-41
2021/06/16 06:22:36;;;;;;;8.20;5.57;;;21.10;95.60;;;;;;5052036;28;20272;-41
2021/06/16 06:25:04;;;;;;;9.88;4.90;;;21.20;95.40;;;;;;5052164;28;20286;-40
2021/06/16 06:27:33;;;;;;;6.25;4.80;;;21.30;95.20;;;;;;5051856;28;20274;-42
2021/06/16 06:30:01;;;;;;;6.88;5.28;;;21.40;95.00;;;;;;5051537;28;20769;-45
2021/06/16 06:32:29;;;;;;;7.38;5.30;;;21.50;94.70;;;;;;5052116;28;20231;-44
2021/06/16 06:34:57;;;;;;;8.00;5.43;;;21.60;94.50;;;;;;5051713;28;20291;-42
2021/06/16 06:37:26;;;;;;;8.57;4.88;;;21.70;94.40;;;;;;5051774;28;20294;-46
2021/06/16 06:39:54;;;;;;;8.35;5.40;;;21.90;94.30;;;;;;5051666;28;20307;-44
2021/06/16 06:42:22;;;;;;;11.57;6.10;;;21.90;94.40;;;;;;5051461;28;20266;-43
2021/06/16 06:44:50;;;;;;;8.82;5.50;;;22.00;94.00;;;;;;5051388;28;20310;-41
2021/06/16 06:47:20;;;;;;;12.65;6.72;;;22.10;93.90;;;;;;5051684;28;20232;-41
2021/06/16 06:49:48;;;;;;;8.35;5.45;;;22.20;93.80;;;;;;5051731;28;20239;-42
2021/06/16 06:52:16;;;;;;;9.15;5.28;;;22.30;93.60;;;;;;5051266;28;20338;-47
2021/06/16 06:54:45;;;;;;;11.55;5.40;;;22.40;93.50;;;;;;5051647;28;20302;-46
2021/06/16 06:57:13;;;;;;;13.98;6.82;;;22.50;93.30;;;;;;5051351;28;20291;-43
2021/06/16 06:59:41;;;;;;;9.77;5.75;;;22.70;93.20;;;;;;5051266;28;20315;-45
2021/06/16 07:02:09;;;;;;;8.00;5.00;;;22.80;93.00;;;;;;5051260;28;20215;-43
2021/06/16 07:04:37;;;;;;;5.97;5.40;;;22.90;92.70;;;;;;5050754;28;20208;-44
2021/06/16 07:07:05;;;;;;;7.80;5.60;;;23.10;92.50;;;;;;5051298;28;20318;-48
2021/06/16 07:09:33;;;;;;;10.50;5.40;;;23.20;92.20;;;;;;5051157;28;20673;-45
2021/06/16 07:12:02;;;;;;;7.53;4.38;;;23.30;91.90;;;;;;5050896;28;20262;-46
2021/06/16 07:14:31;;;;;;;8.38;3.83;;;23.30;91.70;;;;;;5051305;28;20683;-45
2021/06/16 07:16:59;;;;;;;6.82;4.65;;;23.40;91.50;;;;;;5051603;28;20228;-45
2021/06/16 07:19:27;;;;;;;6.40;4.55;;;23.40;91.30;;;;;;5051321;28;20250;-49
2021/06/16 07:21:55;;;;;;;4.75;4.00;;;23.40;91.20;;;;;;5050877;28;20798;-44
2021/06/16 07:24:23;;;;;;;9.02;4.40;;;23.50;91.00;;;;;;5051122;28;20713;-43
2021/06/16 07:26:51;;;;;;;9.27;5.13;;;23.50;90.80;;;;;;5051286;28;20319;-45
2021/06/16 07:29:21;;;;;;;4.60;4.20;;;23.60;90.70;;;;;;5051523;28;20215;-44
2021/06/16 07:31:49;;;;;;;9.07;5.68;;;23.60;90.50;;;;;;5051558;28;20327;-45
2021/06/16 07:34:17;;;;;;;4.10;3.70;;;23.70;90.50;;;;;;5051333;28;20215;-44
2021/06/16 07:36:45;;;;;;;7.50;4.45;;;23.80;90.20;;;;;;5051723;28;20219;-47
2021/06/16 07:39:13;;;;;;;6.20;4.57;;;23.90;90.00;;;;;;5051308;28;20211;-45
2021/06/16 07:41:43;;;;;;;7.75;7.05;;;24.10;89.70;;;;;;5050460;28;20230;-46
2021/06/16 07:44:11;;;;;;;5.97;4.85;;;24.20;89.20;;;;;;5051799;28;20207;-45
2021/06/16 07:46:41;;;;;;;10.48;4.57;;;24.30;88.70;;;;;;5051507;28;20323;-48
2021/06/16 07:49:09;;;;;;;7.80;4.47;;;24.40;87.30;;;;;;5051525;28;20235;-48
2021/06/16 07:51:37;;;;;;;5.07;3.95;;;24.40;87.80;;;;;;5051068;28;20208;-45
2021/06/16 07:54:11;;;;;;;8.40;5.22;;;24.60;87.80;;;;;;5051155;28;20295;-48
2021/06/16 07:56:39;;;;;;;6.75;4.80;;;24.60;87.60;;;;;;5051271;28;20292;-44
2021/06/16 07:59:09;;;;;;;5.32;4.20;;;24.70;87.80;;;;;;5051139;28;20287;-44
2021/06/16 08:01:38;;;;;;;6.82;4.50;;;24.80;87.70;;;;;;5050947;28;20211;-47
2021/06/16 08:04:07;;;;;;;5.68;3.80;;;24.90;87.50;;;;;;5050957;28;20619;-43
2021/06/16 08:06:35;;;;;;;5.70;4.18;;;24.90;87.80;;;;;;5051156;28;20307;-44
2021/06/16 08:09:11;;;;;;;6.47;4.35;;;24.90;87.70;;;;;;5051075;28;20294;-48
2021/06/16 08:11:39;;;;;;;8.75;5.60;;;24.90;87.70;;;;;;5050967;28;20549;-45
2021/06/16 08:14:07;;;;;;;4.95;4.45;;;24.90;87.70;;;;;;5050413;28;20211;-46
2021/06/16 08:16:35;;;;;;;5.35;3.45;;;25.10;87.00;;;;;;5050965;28;20286;-44
2021/06/16 08:19:04;;;;;;;7.03;4.00;;;25.20;86.10;;;;;;5051092;28;20607;-44
2021/06/16 08:21:33;;;;;;;5.20;3.58;;;25.40;85.50;;;;;;5050854;28;20286;-45
2021/06/16 08:24:01;;;;;;;5.85;3.88;;;25.40;84.80;;;;;;5053883;28;20219;-47
2021/06/16 08:26:29;;;;;;;8.35;4.38;;;25.50;84.30;;;;;;5054399;28;20240;-45
2021/06/16 08:28:57;;;;;;;4.57;3.70;;;25.70;83.90;;;;;;5054231;28;20264;-49
2021/06/16 08:31:25;;;;;;;4.65;3.60;;;25.70;83.00;;;;;;5054249;28;20534;-43
2021/06/16 08:33:54;;;;;;;9.02;3.80;;;25.80;82.60;;;;;;5054249;28;20232;-44
2021/06/16 08:36:22;;;;;;;4.20;3.80;;;25.90;82.00;;;;;;5054372;28;20630;-44
2021/06/16 08:38:51;;;;;;;5.38;3.20;;;26.00;81.60;;;;;;5054145;28;20235;-45
2021/06/16 08:41:21;;;;;;;8.38;3.63;;;26.10;81.40;;;;;;5053955;28;20414;-46
2021/06/16 08:43:49;;;;;;;5.53;4.18;;;26.20;81.10;;;;;;5054266;28;20295;-45
2021/06/16 08:46:17;;;;;;;4.32;3.15;;;26.30;81.00;;;;;;5053920;28;20299;-44
2021/06/16 08:48:46;;;;;;;7.45;3.55;;;26.40;80.30;;;;;;5054030;28;20289;-44
2021/06/16 08:51:15;;;;;;;7.72;4.10;;;26.40;79.80;;;;;;5053957;28;20302;-47
2021/06/16 08:53:44;;;;;;;5.05;3.88;;;26.40;78.70;;;;;;5053784;28;20239;-44
2021/06/16 08:56:14;;;;;;;5.55;3.58;;;26.50;78.50;;;;;;5053965;28;20744;-44
2021/06/16 08:58:43;;;;;;;6.05;3.63;;;26.60;78.50;;;;;;5053682;28;20663;-45
2021/06/16 09:01:12;;;;;;;7.22;4.13;;;26.70;77.60;;;;;;5053721;28;20714;-46
2021/06/16 09:03:40;;;;;;;4.13;3.60;;;26.80;76.60;;;;;;5053547;28;20246;-45
2021/06/16 09:06:10;;;;;;;6.15;3.75;;;26.90;75.70;;;;;;5053471;28;20296;-45
2021/06/16 09:08:54;;;;;;;6.13;3.63;;;26.90;74.60;;;;;;5054061;28;20259;-46
2021/06/16 09:11:24;;;;;;;4.32;3.80;;;27.00;73.40;;;;;;5051251;28;20211;-45
2021/06/16 09:14:09;;;;;;;4.88;3.20;;;27.10;73.20;;;;;;5053395;28;20303;-45
2021/06/16 09:16:37;;;;;;;20.77;4.70;;;27.10;72.50;;;;;;5053202;28;20303;-45
2021/06/16 09:19:17;;;;;;;4.45;3.58;;;27.10;72.10;;;;;;5053411;28;20239;-45
2021/06/16 09:21:46;;;;;;;4.15;3.53;;;27.30;71.30;;;;;;5053288;28;20319;-45
2021/06/16 09:24:14;;;;;;;6.38;4.35;;;27.40;71.00;;;;;;5053249;28;20214;-44
2021/06/16 09:26:45;;;;;;;6.15;4.05;;;27.50;70.80;;;;;;5053180;28;20207;-45
2021/06/16 09:29:13;;;;;;;6.35;3.83;;;27.50;70.40;;;;;;5052924;28;20315;-44
2021/06/16 09:31:43;;;;;;;11.77;4.60;;;27.50;70.10;;;;;;5053246;28;20208;-46
2021/06/16 09:34:12;;;;;;;7.45;4.05;;;27.50;69.90;;;;;;5052858;28;20239;-47
2021/06/16 09:36:49;;;;;;;8.50;3.53;;;27.60;69.90;;;;;;5053074;28;20298;-46
2021/06/16 09:39:20;;;;;;;5.10;3.30;;;27.60;69.60;;;;;;5053082;28;20200;-44
2021/06/16 09:41:59;;;;;;;4.38;3.97;;;27.60;69.30;;;;;;5052904;28;20251;-45
2021/06/16 09:44:54;;;;;;;4.68;3.75;;;27.70;69.60;;;;;;5053142;28;20302;-47
2021/06/16 09:47:24;;;;;;;6.30;4.03;;;27.80;67.90;;;;;;5006511;28;20299;-44
2021/06/16 09:49:55;;;;;;;14.05;4.32;;;27.80;67.60;;;;;;5052772;28;20296;-47
2021/06/16 09:52:34;;;;;;;5.65;3.65;;;27.90;67.30;;;;;;5052634;28;20298;-47
2021/06/16 09:55:06;;;;;;;6.80;4.18;;;28.00;66.60;;;;;;5052567;28;20693;-47
2021/06/16 09:57:36;;;;;;;4.75;3.85;;;28.00;65.70;;;;;;5052415;28;20212;-47
2021/06/16 10:00:09;;;;;;;9.27;3.70;;;28.10;64.80;;;;;;5052048;28;20232;-44
2021/06/16 10:02:40;;;;;;;4.28;3.03;;;28.10;64.10;;;;;;5052617;28;20368;-44
2021/06/16 10:05:14;;;;;;;3.20;2.90;;;28.20;63.70;;;;;;5052777;28;20208;-44
2021/06/16 10:07:43;;;;;;;3.42;2.80;;;28.30;62.60;;;;;;5052433;28;20624;-46
2021/06/16 10:10:12;;;;;;;6.28;3.90;;;28.30;62.00;;;;;;5052499;28;20295;-49
2021/06/16 10:12:43;;;;;;;5.55;3.50;;;28.40;62.00;;;;;;5052683;28;20243;-44
2021/06/16 10:15:14;;;;;;;11.10;3.95;;;28.40;61.30;;;;;;5052392;28;20207;-46
2021/06/16 10:17:43;;;;;;;6.55;3.20;;;28.40;61.30;;;;;;5052353;28;20615;-47
2021/06/16 10:20:14;;;;;;;3.45;3.15;;;28.50;60.90;;;;;;5052499;28;20215;-45
2021/06/16 10:22:43;;;;;;;3.47;3.08;;;28.60;60.60;;;;;;5051951;28;20411;-44
2021/06/16 10:25:12;;;;;;;3.85;3.42;;;28.70;60.00;;;;;;5051850;28;20295;-47
2021/06/16 10:27:48;;;;;;;3.38;2.88;;;28.70;58.90;;;;;;5052136;28;20299;-45
2021/06/16 10:30:21;;;;;;;8.35;4.40;;;28.70;58.30;;;;;;5052508;28;20203;-44
2021/06/16 10:32:50;;;;;;;9.00;3.28;;;28.70;58.30;;;;;;5052393;28;20215;-46
2021/06/16 10:35:35;;;;;;;3.10;2.80;;;28.70;58.00;;;;;;5052240;28;20291;-48
2021/06/16 10:38:12;;;;;;;15.63;3.97;;;28.80;57.10;;;;;;5051436;28;20212;-48
2021/06/16 10:40:48;;;;;;;7.10;3.70;;;28.80;57.40;;;;;;5052169;28;20208;-45
2021/06/16 10:43:31;;;;;;;6.10;3.10;;;28.90;56.90;;;;;;5051361;28;20587;-48
2021/06/16 10:46:20;;;;;;;10.25;4.05;;;28.90;56.70;;;;;;5051480;28;20300;-47
2021/06/16 10:48:59;;;;;;;4.90;3.20;;;29.00;56.20;;;;;;5044714;28;20232;-45
2021/06/16 10:51:44;;;;;;;7.05;2.70;;;29.00;55.30;;;;;;5051891;28;20208;-49
2021/06/16 10:54:30;;;;;;;16.65;4.05;;;29.10;54.80;;;;;;5051664;28;20294;-47
2021/06/16 10:57:09;;;;;;;3.95;2.72;;;29.10;54.30;;;;;;5051839;28;20211;-45
2021/06/16 11:00:13;;;;;;;4.00;2.75;;;29.10;53.50;;;;;;5051582;28;20258;-44
2021/06/16 11:03:06;;;;;;;4.10;2.65;;;29.10;52.00;;;;;;5051252;28;20600;-44
2021/06/16 11:05:45;;;;;;;2.58;2.38;;;29.10;52.90;;;;;;5051594;28;20215;-44
2021/06/16 11:08:47;;;;;;;3.53;2.67;;;29.10;53.00;;;;;;5050898;28;20294;-44
2021/06/16 11:11:15;;;;;;;5.15;3.38;;;29.10;52.90;;;;;;4970643;28;20660;-45
2021/06/16 11:13:45;;;;;;;2.78;2.58;;;29.20;53.20;;;;;;5035152;28;20237;-45
2021/06/16 11:16:53;;;;;;;7.43;3.33;;;29.20;52.80;;;;;;5051374;28;20743;-47
2021/06/16 11:19:43;;;;;;;15.50;3.28;;;29.30;52.40;;;;;;5051640;28;20262;-48
2021/06/16 11:22:35;;;;;;;13.88;3.50;;;29.40;52.10;;;;;;5051042;28;20239;-44
2021/06/16 11:25:24;;;;;;;5.43;2.85;;;29.40;52.30;;;;;;5051542;28;20287;-45
2021/06/16 11:27:58;;;;;;;4.15;2.83;;;29.40;51.90;;;;;;5051097;28;20216;-48
2021/06/16 11:30:32;;;;;;;4.68;2.60;;;29.40;51.50;;;;;;5051153;28;20695;-49
2021/06/16 11:33:31;;;;;;;5.70;3.05;;;29.50;51.50;;;;;;5051334;28;20214;-46
2021/06/16 11:36:02;;;;;;;7.82;3.25;;;29.50;52.20;;;;;;5051441;28;20208;-49
2021/06/16 11:38:33;;;;;;;8.95;3.67;;;29.40;52.30;;;;;;5051607;28;20242;-49
2021/06/16 11:41:07;;;;;;;12.63;3.42;;;29.30;52.60;;;;;;5051438;28;20686;-46
2021/06/16 11:43:38;;;;;;;3.22;2.33;;;29.30;53.30;;;;;;5051680;28;20211;-45
2021/06/16 11:46:13;;;;;;;3.15;2.20;;;29.40;53.10;;;;;;5051489;28;20259;-47
2021/06/16 11:48:43;;;;;;;5.10;3.42;;;29.40;52.10;;;;;;5051520;28;20203;-45
2021/06/16 11:51:13;;;;;;;4.38;2.63;;;29.50;52.00;;;;;;5051553;28;20212;-44
2021/06/16 11:53:44;;;;;;;3.15;2.65;;;29.60;51.70;;;;;;5051416;28;20299;-49
2021/06/16 11:56:12;;;;;;;2.40;2.20;;;29.60;51.20;;;;;;5051685;28;20307;-45
2021/06/16 11:58:41;;;;;;;7.78;2.47;;;29.60;50.80;;;;;;5055222;28;20222;-47
2021/06/16 12:01:12;;;;;;;3.70;2.22;;;29.60;50.30;;;;;;5055238;28;20204;-47
2021/06/16 12:03:43;;;;;;;4.25;2.60;;;29.60;50.00;;;;;;5054728;28;20208;-46
2021/06/16 12:06:13;;;;;;;3.92;2.17;;;29.60;49.90;;;;;;5054708;28;20619;-46
2021/06/16 12:08:44;;;;;;;9.93;2.92;;;29.60;49.60;;;;;;5054585;28;20212;-50
2021/06/16 12:11:23;;;;;;;5.30;2.50;;;29.70;49.20;;;;;;5054906;28;20302;-51
2021/06/16 12:14:05;;;;;;;2.42;2.00;;;29.70;48.80;;;;;;5055127;28;20212;-50
2021/06/16 12:16:35;;;;;;;2.30;2.17;;;29.80;48.40;;;;;;5054806;28;20734;-45
2021/06/16 12:19:09;;;;;;;8.13;2.60;;;29.90;48.40;;;;;;5054716;28;20200;-49
2021/06/16 12:21:38;;;;;;;5.57;2.80;;;30.00;47.80;;;;;;5054635;28;20575;-47
2021/06/16 12:24:20;;;;;;;5.13;2.30;;;30.00;47.40;;;;;;5054584;28;20422;-48
2021/06/16 12:27:04;;;;;;;4.72;2.28;;;30.10;47.10;;;;;;5054604;28;20295;-46
2021/06/16 12:29:33;;;;;;;3.30;2.20;;;30.20;46.40;;;;;;5054368;28;20662;-45
2021/06/16 12:32:04;;;;;;;2.13;1.92;;;30.20;46.20;;;;;;5054263;28;20231;-45
2021/06/16 12:34:34;;;;;;;5.90;2.40;;;30.20;46.10;;;;;;5054338;28;20250;-51
2021/06/16 12:37:10;;;;;;;4.13;2.20;;;30.20;46.30;;;;;;5054485;28;20212;-46
2021/06/16 12:39:56;;;;;;;3.53;2.17;;;30.20;45.80;;;;;;5054622;28;20214;-50
2021/06/16 12:42:38;;;;;;;4.30;2.28;;;30.30;45.10;;;;;;5054527;28;20214;-52
2021/06/16 12:45:29;;;;;;;3.00;2.45;;;30.40;44.90;;;;;;5054169;28;20563;-51
2021/06/16 12:47:59;;;;;;;6.85;2.60;;;30.50;44.50;;;;;;5054320;28;20222;-49
2021/06/16 12:50:33;;;;;;;5.15;2.38;;;30.70;44.60;;;;;;5053931;28;20800;-52
2021/06/16 12:53:14;;;;;;;2.75;1.95;;;30.80;44.20;;;;;;5054288;28;20217;-45
2021/06/16 12:55:47;;;;;;;4.15;1.67;;;30.80;43.50;;;;;;5053926;28;20208;-44
2021/06/16 12:58:15;;;;;;;3.05;2.13;;;30.70;43.80;;;;;;5053894;28;20298;-46
2021/06/16 13:00:44;;;;;;;6.78;2.13;;;30.70;43.80;;;;;;5053808;28;20790;-47
2021/06/16 13:03:14;;;;;;;2.50;2.28;;;30.70;43.40;;;;;;5053810;28;20291;-47
2021/06/16 13:05:43;;;;;;;6.25;2.55;;;30.70;43.00;;;;;;5053421;28;20216;-45